Time;durP1;ratioP1;P1;durP2;ratioP2;P2;SDS_P1;SDS_P2;PMS_P1;PMS_P2;Temp;Humidity;BMP_temperature;BMP_pressure;BME280_temperature;BME280_humidity;BME280_pressure;Samples;Min_cycle;Max_cycle;Signal;HPM_P1;HPM_P2
2023/03/24 00:00:14;;;;;;;28.20;13.52;;;;;;;;;;4994261;28;20049;-71
2023/03/24 00:02:41;;;;;;;24.10;12.48;;;;;;;;;;4989328;28;20430;-73
2023/03/24 00:05:16;;;;;;;20.45;11.80;;;;;;;;;;4983601;28;20041;-74
2023/03/24 00:07:42;;;;;;;22.38;13.32;;;;;;;;;;4997233;28;20069;-70
2023/03/24 00:10:09;;;;;;;17.50;9.88;;;;;;;;;;4986212;28;20060;-73
2023/03/24 00:12:37;;;;;;;30.20;15.18;;;;;;;;;;4994885;28;20045;-72
2023/03/24 00:15:07;;;;;;;20.67;11.65;;;;;;;;;;4980593;28;20042;-72
2023/03/24 00:17:34;;;;;;;18.13;11.10;;;;;;;;;;4970215;28;20100;-72
2023/03/24 00:20:00;;;;;;;15.70;10.07;;;;;;;;;;4995705;28;20041;-73
2023/03/24 00:22:27;;;;;;;22.17;12.48;;;;;;;;;;4984469;28;20140;-71
2023/03/24 00:24:53;;;;;;;15.70;10.93;;;;;;;;;;4994570;28;20048;-72
2023/03/24 00:27:18;;;;;;;17.77;9.52;;;;;;;;;;4994099;28;20053;-72
2023/03/24 00:29:46;;;;;;;17.23;10.00;;;;;;;;;;5010726;28;20612;-72
2023/03/24 00:32:11;;;;;;;17.05;10.70;;;;;;;;;;4982468;28;20041;-72
2023/03/24 00:34:37;;;;;;;16.00;12.07;;;;;;;;;;4995590;28;20364;-73
2023/03/24 00:37:03;;;;;;;21.38;12.82;;;;;;;;;;4970023;28;20033;-70
2023/03/24 00:39:31;;;;;;;19.95;13.02;;;;;;;;;;4994838;28;20029;-73
2023/03/24 00:41:57;;;;;;;20.05;12.38;;;;;;;;;;4993465;28;20049;-73
2023/03/24 00:44:23;;;;;;;20.00;13.68;;;;;;;;;;4971954;28;20767;-72
2023/03/24 00:46:54;;;;;;;25.25;16.23;;;;;;;;;;4966114;28;20611;-72
2023/03/24 00:49:24;;;;;;;27.42;17.40;;;;;;;;;;4991202;28;20700;-72
2023/03/24 00:51:50;;;;;;;22.27;13.65;;;;;;;;;;4967676;28;20115;-72
2023/03/24 00:54:20;;;;;;;16.75;11.43;;;;;;;;;;4996115;28;20491;-71
2023/03/24 00:56:48;;;;;;;18.55;10.55;;;;;;;;;;4995022;28;20056;-72
2023/03/24 00:59:13;;;;;;;28.05;12.23;;;;;;;;;;4994207;28;20065;-71
2023/03/24 01:01:39;;;;;;;29.92;13.23;;;;;;;;;;4994836;28;20114;-70
2023/03/24 01:04:05;;;;;;;16.48;9.38;;;;;;;;;;4994784;28;20089;-71
2023/03/24 01:06:30;;;;;;;28.67;11.35;;;;;;;;;;4996136;28;20168;-71
2023/03/24 01:08:56;;;;;;;23.23;11.10;;;;;;;;;;4995114;28;20456;-70
2023/03/24 01:11:23;;;;;;;22.65;9.95;;;;;;;;;;4985990;28;20041;-72
2023/03/24 01:13:49;;;;;;;24.50;10.80;;;;;;;;;;5000689;28;20048;-71
2023/03/24 01:16:17;;;;;;;23.80;10.35;;;;;;;;;;5001738;28;20103;-71
2023/03/24 01:18:43;;;;;;;23.85;10.65;;;;;;;;;;4999524;28;20411;-70
2023/03/24 01:21:10;;;;;;;19.63;8.75;;;;;;;;;;5001167;28;20041;-71
2023/03/24 01:23:38;;;;;;;15.93;7.18;;;;;;;;;;4982064;28;20068;-71
2023/03/24 01:26:07;;;;;;;12.50;5.57;;;;;;;;;;5009492;28;20041;-71
2023/03/24 01:28:34;;;;;;;16.83;6.00;;;;;;;;;;4998144;28;20163;-71
2023/03/24 01:31:02;;;;;;;14.52;5.88;;;;;;;;;;4986281;28;20056;-71
2023/03/24 01:33:27;;;;;;;18.02;5.97;;;;;;;;;;4965503;28;22215;-71
2023/03/24 01:35:52;;;;;;;21.80;6.10;;;;;;;;;;5006019;28;20030;-71
2023/03/24 01:38:17;;;;;;;23.00;6.65;;;;;;;;;;4980784;28;20125;-71
2023/03/24 01:40:44;;;;;;;23.38;6.45;;;;;;;;;;4994751;28;20482;-72
2023/03/24 01:43:22;;;;;;;22.95;7.35;;;;;;;;;;4979008;28;20517;-71
2023/03/24 01:45:50;;;;;;;32.78;7.82;;;;;;;;;;4995521;28;20049;-72
2023/03/24 01:48:18;;;;;;;30.30;7.70;;;;;;;;;;4995941;28;20123;-72
2023/03/24 01:50:49;;;;;;;33.58;8.00;;;;;;;;;;4992592;28;20063;-71
2023/03/24 01:53:14;;;;;;;38.53;8.38;;;;;;;;;;4993016;28;20064;-72
2023/03/24 01:55:41;;;;;;;36.30;7.50;;;;;;;;;;4993313;28;20038;-71
2023/03/24 01:58:07;;;;;;;41.13;7.80;;;;;;;;;;4990976;28;21085;-71
2023/03/24 02:00:33;;;;;;;27.55;5.65;;;;;;;;;;4993363;28;20040;-72
2023/03/24 02:03:02;;;;;;;37.70;6.72;;;;;;;;;;4993832;28;20139;-71
2023/03/24 02:05:29;;;;;;;31.85;5.53;;;;;;;;;;4988826;28;20046;-71
2023/03/24 02:08:02;;;;;;;28.50;5.10;;;;;;;;;;4968942;28;20038;-71
2023/03/24 02:10:31;;;;;;;34.92;6.13;;;;;;;;;;4992001;28;20080;-70
2023/03/24 02:12:56;;;;;;;37.40;6.13;;;;;;;;;;4977023;28;22309;-70
2023/03/24 02:15:24;;;;;;;37.22;6.55;;;;;;;;;;5008836;28;20029;-72
2023/03/24 02:18:09;;;;;;;39.90;6.95;;;;;;;;;;4989016;28;20041;-70
2023/03/24 02:20:44;;;;;;;43.30;6.07;;;;;;;;;;4982558;28;20029;-71
2023/03/24 02:23:13;;;;;;;43.63;6.28;;;;;;;;;;5007340;28;20306;-72
2023/03/24 02:25:47;;;;;;;35.35;5.45;;;;;;;;;;4991094;28;20040;-71
2023/03/24 02:28:19;;;;;;;28.65;4.55;;;;;;;;;;4974322;28;20125;-71
2023/03/24 02:30:58;;;;;;;37.88;5.25;;;;;;;;;;4991227;28;20045;-70
2023/03/24 02:33:44;;;;;;;28.95;4.40;;;;;;;;;;4995087;28;20160;-70
2023/03/24 02:36:20;;;;;;;34.25;4.60;;;;;;;;;;4996045;28;20034;-71
2023/03/24 02:38:48;;;;;;;33.28;4.68;;;;;;;;;;4997762;28;20033;-70
2023/03/24 02:41:34;;;;;;;31.85;4.90;;;;;;;;;;4996479;28;20037;-70
2023/03/24 02:44:05;;;;;;;30.05;4.95;;;;;;;;;;4989790;28;20172;-70
2023/03/24 02:46:40;;;;;;;33.55;5.18;;;;;;;;;;4995470;28;20030;-69
2023/03/24 02:49:13;;;;;;;37.72;4.90;;;;;;;;;;4996341;28;20048;-69
2023/03/24 02:51:39;;;;;;;30.37;4.23;;;;;;;;;;4995886;28;20045;-68
2023/03/24 02:54:04;;;;;;;32.28;5.25;;;;;;;;;;4972229;28;20689;-70
2023/03/24 02:56:29;;;;;;;31.17;4.40;;;;;;;;;;4996113;28;20046;-69
2023/03/24 02:59:02;;;;;;;31.05;4.75;;;;;;;;;;4995361;28;20037;-71
2023/03/24 03:01:40;;;;;;;27.98;4.75;;;;;;;;;;4967742;28;20107;-70
2023/03/24 03:04:11;;;;;;;30.25;4.28;;;;;;;;;;4992101;28;20048;-69
2023/03/24 03:06:39;;;;;;;30.77;4.37;;;;;;;;;;4995952;28;20048;-69
2023/03/24 03:09:07;;;;;;;37.35;5.20;;;;;;;;;;5003820;28;21160;-69
2023/03/24 03:11:33;;;;;;;30.35;4.45;;;;;;;;;;4968373;28;20064;-70
2023/03/24 03:14:01;;;;;;;35.40;4.85;;;;;;;;;;4979560;28;20657;-69
2023/03/24 03:16:46;;;;;;;38.90;5.85;;;;;;;;;;4988153;28;20677;-71
2023/03/24 03:19:16;;;;;;;41.08;5.60;;;;;;;;;;4991443;28;20538;-70
2023/03/24 03:21:43;;;;;;;36.92;6.28;;;;;;;;;;4960056;28;20034;-70
2023/03/24 03:24:11;;;;;;;32.47;4.20;;;;;;;;;;4972439;28;20061;-71
2023/03/24 03:26:36;;;;;;;39.65;6.50;;;;;;;;;;4990882;28;20109;-71
2023/03/24 03:29:04;;;;;;;36.58;5.43;;;;;;;;;;4992534;28;21334;-69
2023/03/24 03:31:51;;;;;;;39.60;5.38;;;;;;;;;;4990591;28;20045;-69
2023/03/24 03:34:37;;;;;;;37.58;5.90;;;;;;;;;;4992046;28;20041;-69
2023/03/24 03:37:08;;;;;;;37.88;5.43;;;;;;;;;;4992423;28;20037;-68
2023/03/24 03:39:38;;;;;;;33.60;6.32;;;;;;;;;;4994255;28;20056;-69
2023/03/24 03:42:06;;;;;;;40.28;5.45;;;;;;;;;;4997888;28;20121;-69
2023/03/24 03:44:31;;;;;;;56.50;6.32;;;;;;;;;;4986543;28;20611;-69
2023/03/24 03:46:57;;;;;;;38.78;5.45;;;;;;;;;;4992472;28;20037;-69
2023/03/24 03:49:25;;;;;;;42.03;5.20;;;;;;;;;;4989563;28;20406;-70
2023/03/24 03:51:54;;;;;;;46.05;5.32;;;;;;;;;;4991337;28;20045;-70
2023/03/24 03:54:20;;;;;;;44.95;6.15;;;;;;;;;;4990446;28;20746;-71
2023/03/24 03:56:47;;;;;;;36.92;5.78;;;;;;;;;;4990297;28;20057;-69
2023/03/24 03:59:23;;;;;;;41.65;5.90;;;;;;;;;;4988304;28;20491;-69
2023/03/24 04:01:48;;;;;;;46.45;5.60;;;;;;;;;;4988799;28;20111;-69
2023/03/24 04:04:25;;;;;;;43.65;5.65;;;;;;;;;;4989377;28;20108;-70
2023/03/24 04:06:52;;;;;;;38.35;5.47;;;;;;;;;;4991450;28;20130;-70
2023/03/24 04:09:32;;;;;;;45.53;6.63;;;;;;;;;;4989242;28;20478;-70
2023/03/24 04:12:04;;;;;;;41.95;5.88;;;;;;;;;;4992156;28;20053;-69
2023/03/24 04:14:45;;;;;;;46.05;5.68;;;;;;;;;;4989433;28;20030;-70
2023/03/24 04:17:14;;;;;;;48.50;6.78;;;;;;;;;;4971842;28;20520;-70
2023/03/24 04:19:49;;;;;;;37.90;5.13;;;;;;;;;;4974798;28;20061;-70
2023/03/24 04:22:37;;;;;;;36.05;6.00;;;;;;;;;;4991727;28;20034;-69
2023/03/24 04:25:18;;;;;;;41.45;5.82;;;;;;;;;;4990441;28;20033;-70
2023/03/24 04:28:02;;;;;;;56.42;7.03;;;;;;;;;;4989695;28;20038;-70
2023/03/24 04:30:41;;;;;;;43.08;6.13;;;;;;;;;;4989229;28;20892;-69
2023/03/24 04:33:09;;;;;;;50.03;6.72;;;;;;;;;;4984429;28;20041;-70
2023/03/24 04:35:48;;;;;;;47.80;6.60;;;;;;;;;;4987393;28;20041;-70
2023/03/24 04:38:17;;;;;;;42.90;6.43;;;;;;;;;;4994684;28;20045;-70
2023/03/24 04:40:45;;;;;;;56.95;7.43;;;;;;;;;;4994914;28;20121;-71
2023/03/24 04:43:12;;;;;;;56.35;6.75;;;;;;;;;;4994814;28;20034;-69
2023/03/24 04:45:38;;;;;;;52.38;6.47;;;;;;;;;;4987101;28;20038;-69
2023/03/24 04:48:04;;;;;;;49.55;7.63;;;;;;;;;;4979998;28;20100;-69
2023/03/24 04:50:37;;;;;;;48.08;6.82;;;;;;;;;;4994553;28;20132;-69
2023/03/24 04:53:03;;;;;;;52.30;6.90;;;;;;;;;;4993358;28;20148;-69
2023/03/24 04:55:31;;;;;;;60.05;7.55;;;;;;;;;;4994439;28;20153;-68
2023/03/24 04:57:58;;;;;;;49.92;7.38;;;;;;;;;;4993607;28;20037;-70
2023/03/24 05:00:24;;;;;;;60.33;7.30;;;;;;;;;;4993621;28;20034;-68
2023/03/24 05:02:53;;;;;;;52.63;7.20;;;;;;;;;;4975235;28;20073;-69
2023/03/24 05:05:19;;;;;;;49.50;6.70;;;;;;;;;;4993507;28;20042;-69
2023/03/24 05:07:44;;;;;;;57.15;7.88;;;;;;;;;;4970712;28;20650;-70
2023/03/24 05:10:10;;;;;;;50.22;6.78;;;;;;;;;;4955278;28;20052;-70
2023/03/24 05:12:35;;;;;;;57.72;7.90;;;;;;;;;;5010292;28;20041;-70
2023/03/24 05:15:00;;;;;;;47.47;6.43;;;;;;;;;;4979630;28;20621;-70
2023/03/24 05:17:26;;;;;;;56.80;8.25;;;;;;;;;;4995855;28;20152;-71
2023/03/24 05:19:51;;;;;;;63.47;7.55;;;;;;;;;;4994864;28;20049;-68
2023/03/24 05:22:16;;;;;;;64.38;8.52;;;;;;;;;;4994466;28;20041;-69
2023/03/24 05:24:44;;;;;;;56.28;7.72;;;;;;;;;;4996062;28;20088;-69
2023/03/24 05:27:09;;;;;;;49.05;6.93;;;;;;;;;;4995331;28;20041;-70
2023/03/24 05:29:35;;;;;;;58.67;8.10;;;;;;;;;;4994700;28;20029;-69
2023/03/24 05:32:02;;;;;;;60.33;7.65;;;;;;;;;;5008325;28;20054;-69
2023/03/24 05:34:28;;;;;;;52.72;6.93;;;;;;;;;;4994904;28;20513;-69
2023/03/24 05:36:53;;;;;;;54.45;7.00;;;;;;;;;;4993847;28;20037;-70
2023/03/24 05:39:18;;;;;;;63.72;8.90;;;;;;;;;;5010186;28;20130;-69
2023/03/24 05:41:44;;;;;;;61.58;8.85;;;;;;;;;;4997006;28;20466;-71
2023/03/24 05:44:09;;;;;;;71.22;9.48;;;;;;;;;;4973694;28;20053;-70
2023/03/24 05:46:34;;;;;;;69.70;8.90;;;;;;;;;;4996778;28;20112;-70
2023/03/24 05:49:00;;;;;;;75.03;8.98;;;;;;;;;;4972589;28;20057;-70
2023/03/24 05:51:25;;;;;;;69.55;9.82;;;;;;;;;;4997906;28;20061;-70
2023/03/24 05:53:51;;;;;;;65.13;8.50;;;;;;;;;;5008486;28;20037;-69
2023/03/24 05:56:16;;;;;;;65.25;8.38;;;;;;;;;;4997932;28;20042;-70
2023/03/24 05:58:43;;;;;;;59.83;8.75;;;;;;;;;;4997312;28;20188;-71
2023/03/24 06:01:12;;;;;;;64.63;9.32;;;;;;;;;;4983077;28;20146;-70
2023/03/24 06:03:39;;;;;;;84.63;11.10;;;;;;;;;;4996422;28;20040;-70
2023/03/24 06:06:08;;;;;;;75.38;9.65;;;;;;;;;;4997595;28;20041;-69
2023/03/24 06:08:34;;;;;;;73.70;9.45;;;;;;;;;;4986611;28;20629;-69
2023/03/24 06:11:03;;;;;;;71.55;8.77;;;;;;;;;;4983589;28;20050;-70
2023/03/24 06:13:29;;;;;;;71.03;8.48;;;;;;;;;;4975854;28;20652;-71
2023/03/24 06:15:57;;;;;;;73.75;9.40;;;;;;;;;;4978862;28;20037;-70
2023/03/24 06:18:25;;;;;;;71.85;10.75;;;;;;;;;;4996617;28;20034;-69
2023/03/24 06:20:55;;;;;;;72.85;9.13;;;;;;;;;;4996096;28;20120;-68
2023/03/24 06:23:22;;;;;;;79.03;9.07;;;;;;;;;;4993969;28;20041;-68
2023/03/24 06:25:49;;;;;;;73.25;9.38;;;;;;;;;;4992390;28;20033;-70
2023/03/24 06:28:14;;;;;;;72.70;9.98;;;;;;;;;;4969111;28;20230;-71
2023/03/24 06:30:42;;;;;;;75.45;9.07;;;;;;;;;;4993653;28;20689;-69
2023/03/24 06:33:08;;;;;;;64.18;9.00;;;;;;;;;;4999493;28;20037;-70
2023/03/24 06:35:34;;;;;;;74.40;9.50;;;;;;;;;;4990361;28;20065;-70
2023/03/24 06:38:01;;;;;;;63.95;8.68;;;;;;;;;;4998897;28;20072;-71
2023/03/24 06:40:27;;;;;;;63.40;9.40;;;;;;;;;;4998549;28;20518;-69
2023/03/24 06:42:52;;;;;;;69.03;9.52;;;;;;;;;;4989119;28;20438;-67
2023/03/24 06:45:18;;;;;;;73.55;9.10;;;;;;;;;;5013400;28;20038;-69
2023/03/24 06:47:43;;;;;;;78.50;8.63;;;;;;;;;;4997790;28;20837;-68
2023/03/24 06:50:09;;;;;;;67.90;9.82;;;;;;;;;;4995410;28;20076;-70
2023/03/24 06:52:35;;;;;;;76.63;10.15;;;;;;;;;;5001085;28;20029;-68
2023/03/24 06:55:02;;;;;;;76.63;9.82;;;;;;;;;;4999238;28;20032;-69
2023/03/24 06:57:30;;;;;;;84.28;11.52;;;;;;;;;;4998110;28;20033;-68
2023/03/24 06:59:55;;;;;;;70.53;9.95;;;;;;;;;;4996767;28;20033;-69
2023/03/24 07:02:23;;;;;;;66.35;8.65;;;;;;;;;;4986938;28;20092;-70
2023/03/24 07:04:49;;;;;;;80.45;8.32;;;;;;;;;;4997845;28;20030;-70
2023/03/24 07:07:16;;;;;;;68.05;10.60;;;;;;;;;;4981387;28;20033;-71
2023/03/24 07:09:42;;;;;;;66.22;9.20;;;;;;;;;;4998320;28;20757;-70
2023/03/24 07:12:07;;;;;;;75.55;10.85;;;;;;;;;;4996632;28;20056;-70
2023/03/24 07:14:33;;;;;;;57.25;9.40;;;;;;;;;;4996244;28;20167;-69
2023/03/24 07:16:58;;;;;;;60.75;10.00;;;;;;;;;;4997033;28;22292;-70
2023/03/24 07:19:23;;;;;;;70.35;11.07;;;;;;;;;;4972955;28;20502;-69
2023/03/24 07:21:49;;;;;;;70.72;9.43;;;;;;;;;;4990052;28;20045;-69
2023/03/24 07:24:17;;;;;;;66.05;8.82;;;;;;;;;;4965372;28;20858;-70
2023/03/24 07:26:43;;;;;;;63.05;9.48;;;;;;;;;;4996686;28;20227;-69
2023/03/24 07:29:10;;;;;;;60.15;8.15;;;;;;;;;;4997483;28;20061;-68
2023/03/24 07:31:36;;;;;;;66.88;9.40;;;;;;;;;;4995250;28;21229;-69
2023/03/24 07:34:02;;;;;;;61.63;8.50;;;;;;;;;;4983187;28;20048;-69
2023/03/24 07:36:30;;;;;;;55.83;8.98;;;;;;;;;;4998494;28;20045;-71
2023/03/24 07:38:55;;;;;;;51.38;8.30;;;;;;;;;;4987780;28;20041;-70
2023/03/24 07:41:21;;;;;;;54.45;9.10;;;;;;;;;;4998029;28;20130;-71
2023/03/24 07:43:46;;;;;;;56.33;8.70;;;;;;;;;;4993399;28;20042;-69
2023/03/24 07:46:11;;;;;;;58.17;9.07;;;;;;;;;;4995721;28;20157;-69
2023/03/24 07:48:36;;;;;;;51.47;8.40;;;;;;;;;;5010984;28;20096;-71
2023/03/24 07:51:02;;;;;;;57.47;8.60;;;;;;;;;;4998630;28;20054;-71
2023/03/24 07:53:27;;;;;;;55.22;8.93;;;;;;;;;;4993595;28;20128;-70
2023/03/24 07:55:52;;;;;;;47.88;8.38;;;;;;;;;;5007847;28;20108;-71
2023/03/24 07:58:18;;;;;;;44.63;7.68;;;;;;;;;;5007358;28;20668;-70
2023/03/24 08:00:43;;;;;;;59.20;9.45;;;;;;;;;;4993088;28;20038;-70
2023/03/24 08:03:13;;;;;;;53.03;8.23;;;;;;;;;;5009504;28;20037;-69
2023/03/24 08:05:38;;;;;;;50.40;8.00;;;;;;;;;;4995067;28;20106;-71
2023/03/24 08:08:05;;;;;;;43.65;8.07;;;;;;;;;;4970096;28;20490;-69
2023/03/24 08:10:31;;;;;;;47.03;8.25;;;;;;;;;;4982255;28;20053;-69
2023/03/24 08:12:57;;;;;;;44.67;8.07;;;;;;;;;;4992271;28;20040;-71
2023/03/24 08:15:22;;;;;;;42.80;7.75;;;;;;;;;;4983309;28;20057;-69
2023/03/24 08:17:48;;;;;;;49.85;10.35;;;;;;;;;;4980379;28;20033;-70
2023/03/24 08:20:14;;;;;;;50.65;8.02;;;;;;;;;;4964270;28;20037;-70
2023/03/24 08:22:43;;;;;;;54.53;7.72;;;;;;;;;;5008254;28;22314;-71
2023/03/24 08:25:09;;;;;;;42.85;7.85;;;;;;;;;;4977339;28;20133;-69
2023/03/24 08:27:36;;;;;;;45.33;7.68;;;;;;;;;;4995145;28;20124;-70
2023/03/24 08:30:01;;;;;;;49.95;8.70;;;;;;;;;;4993508;28;20042;-68
2023/03/24 08:32:27;;;;;;;50.13;8.73;;;;;;;;;;4988764;28;20079;-70
2023/03/24 08:34:53;;;;;;;46.75;8.20;;;;;;;;;;5011340;28;20616;-70
2023/03/24 08:37:18;;;;;;;46.10;8.75;;;;;;;;;;4995386;28;20025;-70
2023/03/24 08:39:43;;;;;;;44.60;7.47;;;;;;;;;;4997450;28;20033;-69
2023/03/24 08:42:08;;;;;;;46.67;8.25;;;;;;;;;;4960674;28;20578;-70
2023/03/24 08:44:34;;;;;;;41.55;7.25;;;;;;;;;;4986128;28;20061;-70
2023/03/24 08:47:00;;;;;;;46.15;8.48;;;;;;;;;;4994881;28;20038;-69
2023/03/24 08:49:25;;;;;;;44.17;7.35;;;;;;;;;;4965705;28;20133;-72
2023/03/24 08:51:50;;;;;;;45.70;7.57;;;;;;;;;;4987271;28;20046;-70
2023/03/24 08:54:15;;;;;;;41.80;8.13;;;;;;;;;;4987071;28;20053;-70
2023/03/24 08:56:41;;;;;;;39.40;7.25;;;;;;;;;;4981580;28;20123;-72
2023/03/24 08:59:06;;;;;;;45.83;7.22;;;;;;;;;;4988397;28;20095;-69
2023/03/24 09:01:34;;;;;;;44.08;8.15;;;;;;;;;;4988809;28;20515;-71
2023/03/24 09:04:02;;;;;;;55.60;8.35;;;;;;;;;;4988438;28;20045;-71
2023/03/24 09:06:31;;;;;;;39.42;6.88;;;;;;;;;;4991299;28;20034;-70
2023/03/24 09:08:56;;;;;;;43.03;6.97;;;;;;;;;;4985334;28;20746;-71
2023/03/24 09:11:22;;;;;;;50.15;7.57;;;;;;;;;;4983470;28;20049;-73
2023/03/24 09:13:48;;;;;;;39.13;7.47;;;;;;;;;;4990116;28;20038;-70
2023/03/24 09:16:14;;;;;;;39.35;7.38;;;;;;;;;;4993008;28;20515;-70
2023/03/24 09:18:39;;;;;;;40.22;7.30;;;;;;;;;;5007448;28;20038;-70
2023/03/24 09:21:05;;;;;;;43.10;6.97;;;;;;;;;;4979808;28;20034;-71
2023/03/24 09:23:30;;;;;;;36.47;7.38;;;;;;;;;;4992837;28;20038;-71
2023/03/24 09:25:59;;;;;;;39.08;6.55;;;;;;;;;;4991618;28;20041;-74
2023/03/24 09:28:24;;;;;;;38.63;6.80;;;;;;;;;;4989567;28;20042;-68
2023/03/24 09:30:50;;;;;;;38.90;6.85;;;;;;;;;;4992629;28;20065;-70
2023/03/24 09:33:17;;;;;;;38.40;6.05;;;;;;;;;;4991464;28;20141;-72
2023/03/24 09:35:52;;;;;;;39.78;7.13;;;;;;;;;;4974669;28;20037;-71
2023/03/24 09:38:20;;;;;;;32.42;5.85;;;;;;;;;;4983166;28;20554;-72
2023/03/24 09:40:47;;;;;;;42.28;7.10;;;;;;;;;;4992151;28;20589;-70
2023/03/24 09:43:13;;;;;;;36.92;5.85;;;;;;;;;;5007808;28;21048;-71
2023/03/24 09:45:52;;;;;;;40.88;6.13;;;;;;;;;;4990533;28;20045;-70
2023/03/24 09:48:35;;;;;;;33.92;6.10;;;;;;;;;;4991105;28;20111;-70
2023/03/24 09:51:06;;;;;;;40.72;6.47;;;;;;;;;;4997091;28;20050;-71
2023/03/24 09:53:31;;;;;;;44.05;6.50;;;;;;;;;;4996431;28;20229;-70
2023/03/24 09:55:59;;;;;;;40.92;5.68;;;;;;;;;;4997560;28;20510;-73
2023/03/24 09:58:30;;;;;;;31.88;6.25;;;;;;;;;;4995398;28;20048;-71
2023/03/24 10:00:55;;;;;;;31.17;5.40;;;;;;;;;;4995987;28;20073;-70
2023/03/24 10:03:21;;;;;;;36.60;5.28;;;;;;;;;;4997877;28;20029;-71
2023/03/24 10:05:51;;;;;;;33.67;6.03;;;;;;;;;;4996911;28;20030;-71
2023/03/24 10:08:16;;;;;;;35.33;5.47;;;;;;;;;;4995772;28;20176;-71
2023/03/24 10:11:00;;;;;;;33.17;5.07;;;;;;;;;;4998269;28;20073;-72
2023/03/24 10:13:31;;;;;;;35.25;5.50;;;;;;;;;;4990263;28;20111;-72
2023/03/24 10:16:10;;;;;;;38.25;6.35;;;;;;;;;;5013018;28;21375;-70
2023/03/24 10:18:41;;;;;;;36.60;5.97;;;;;;;;;;4997982;28;20038;-71
2023/03/24 10:21:16;;;;;;;32.15;4.97;;;;;;;;;;4998623;28;20038;-72
2023/03/24 10:23:41;;;;;;;27.30;5.35;;;;;;;;;;4997418;28;20036;-71
2023/03/24 10:26:26;;;;;;;35.83;5.30;;;;;;;;;;4998222;28;20037;-71
2023/03/24 10:29:08;;;;;;;39.30;5.95;;;;;;;;;;4997802;28;20072;-70
2023/03/24 10:31:34;;;;;;;37.25;6.30;;;;;;;;;;4998080;28;20070;-71
2023/03/24 10:33:59;;;;;;;41.22;6.20;;;;;;;;;;4997051;28;20037;-70
2023/03/24 10:36:25;;;;;;;37.15;6.18;;;;;;;;;;4998556;28;20136;-70
2023/03/24 10:38:50;;;;;;;36.38;5.57;;;;;;;;;;4984178;28;20123;-72
2023/03/24 10:41:19;;;;;;;39.53;5.82;;;;;;;;;;4998371;28;21069;-72
2023/03/24 10:43:46;;;;;;;37.53;5.80;;;;;;;;;;4997294;28;20037;-71
2023/03/24 10:46:14;;;;;;;37.65;6.75;;;;;;;;;;4996366;28;20042;-71
2023/03/24 10:48:41;;;;;;;33.75;5.32;;;;;;;;;;4997532;28;20761;-73
2023/03/24 10:51:12;;;;;;;33.65;5.30;;;;;;;;;;4997064;28;20127;-70
2023/03/24 10:53:38;;;;;;;30.98;6.00;;;;;;;;;;4990741;28;20128;-72
2023/03/24 10:56:06;;;;;;;40.03;6.40;;;;;;;;;;4997941;28;20792;-73
2023/03/24 10:58:31;;;;;;;32.35;5.35;;;;;;;;;;4996303;28;20037;-70
2023/03/24 11:00:58;;;;;;;38.75;6.22;;;;;;;;;;4996009;28;20034;-71
2023/03/24 11:03:28;;;;;;;36.22;5.85;;;;;;;;;;5009597;28;20042;-70
2023/03/24 11:06:00;;;;;;;41.28;6.53;;;;;;;;;;4993568;28;20048;-72
2023/03/24 11:08:31;;;;;;;35.03;6.35;;;;;;;;;;4994815;28;20041;-69
2023/03/24 11:10:56;;;;;;;37.33;5.90;;;;;;;;;;4993343;28;20045;-68
2023/03/24 11:13:22;;;;;;;30.33;6.13;;;;;;;;;;4995393;28;20123;-70
2023/03/24 11:16:06;;;;;;;28.55;4.97;;;;;;;;;;4994746;28;20068;-69
2023/03/24 11:18:32;;;;;;;32.92;5.88;;;;;;;;;;4994928;28;20038;-71
2023/03/24 11:20:59;;;;;;;37.10;5.55;;;;;;;;;;5011312;28;20041;-71
2023/03/24 11:23:47;;;;;;;31.65;5.57;;;;;;;;;;4995091;28;20052;-72
2023/03/24 11:26:15;;;;;;;31.70;5.72;;;;;;;;;;4996576;28;20140;-70
2023/03/24 11:28:56;;;;;;;31.33;5.70;;;;;;;;;;4991651;28;20048;-69
2023/03/24 11:31:29;;;;;;;31.98;5.82;;;;;;;;;;4995989;28;20041;-70
2023/03/24 11:34:01;;;;;;;34.70;5.85;;;;;;;;;;4997502;28;20070;-70
2023/03/24 11:36:29;;;;;;;36.85;5.82;;;;;;;;;;5012259;28;20041;-68
2023/03/24 11:39:14;;;;;;;32.50;4.93;;;;;;;;;;4994907;28;20034;-69
2023/03/24 11:41:50;;;;;;;37.55;5.47;;;;;;;;;;4984825;28;20039;-68
2023/03/24 11:44:17;;;;;;;35.75;5.82;;;;;;;;;;4996484;28;20128;-71
2023/03/24 11:46:43;;;;;;;33.67;5.53;;;;;;;;;;4984674;28;20046;-68
2023/03/24 11:49:10;;;;;;;32.40;5.63;;;;;;;;;;4991955;28;20462;-70
2023/03/24 11:51:43;;;;;;;31.65;5.25;;;;;;;;;;4954135;28;20052;-70
2023/03/24 11:54:12;;;;;;;30.05;5.38;;;;;;;;;;4977623;28;20160;-70
2023/03/24 11:56:51;;;;;;;28.83;5.35;;;;;;;;;;4978621;28;22279;-70
2023/03/24 11:59:35;;;;;;;32.92;5.78;;;;;;;;;;4977794;28;20403;-71
2023/03/24 12:02:10;;;;;;;30.85;5.78;;;;;;;;;;4971354;28;20048;-71
2023/03/24 12:04:50;;;;;;;25.88;4.82;;;;;;;;;;4979695;28;20121;-70
2023/03/24 12:07:18;;;;;;;26.27;5.10;;;;;;;;;;4979871;28;20173;-69
2023/03/24 12:09:48;;;;;;;30.00;4.70;;;;;;;;;;4976815;28;20507;-70
2023/03/24 12:12:28;;;;;;;33.55;5.13;;;;;;;;;;4977622;28;20051;-71
2023/03/24 12:14:59;;;;;;;30.10;4.55;;;;;;;;;;4977757;28;20030;-70
2023/03/24 12:17:32;;;;;;;24.83;4.10;;;;;;;;;;4978919;28;20117;-71
2023/03/24 12:19:58;;;;;;;30.13;5.03;;;;;;;;;;4977936;28;20135;-73
2023/03/24 12:22:42;;;;;;;32.03;4.47;;;;;;;;;;4978026;28;20034;-74
2023/03/24 12:25:07;;;;;;;31.45;4.53;;;;;;;;;;4976221;28;20029;-72
2023/03/24 12:27:51;;;;;;;25.13;3.88;;;;;;;;;;4953576;28;20041;-70
2023/03/24 12:30:35;;;;;;;29.73;4.63;;;;;;;;;;4977435;28;20033;-72
2023/03/24 12:33:00;;;;;;;30.55;4.82;;;;;;;;;;4965181;28;20097;-71
2023/03/24 12:35:38;;;;;;;30.73;5.30;;;;;;;;;;4977387;28;21211;-71
2023/03/24 12:38:22;;;;;;;22.75;3.67;;;;;;;;;;4964368;28;20620;-71
2023/03/24 12:41:06;;;;;;;23.65;4.70;;;;;;;;;;4977049;28;20061;-69
2023/03/24 12:43:50;;;;;;;29.85;4.38;;;;;;;;;;4976554;28;20088;-70
2023/03/24 12:46:22;;;;;;;31.70;4.38;;;;;;;;;;4958726;28;20146;-71
2023/03/24 12:49:01;;;;;;;22.65;3.88;;;;;;;;;;4964210;28;20120;-69
2023/03/24 12:51:29;;;;;;;26.08;4.90;;;;;;;;;;4992999;28;20112;-70
2023/03/24 12:54:00;;;;;;;26.40;4.35;;;;;;;;;;4995770;28;20073;-71
2023/03/24 12:56:30;;;;;;;31.23;4.50;;;;;;;;;;4996145;28;21011;-70
2023/03/24 12:59:21;;;;;;;27.48;4.00;;;;;;;;;;4997112;28;20763;-71
2023/03/24 13:02:06;;;;;;;23.83;4.07;;;;;;;;;;4972813;28;20037;-70
2023/03/24 13:04:33;;;;;;;28.30;4.05;;;;;;;;;;4977169;28;20051;-71
2023/03/24 13:07:03;;;;;;;32.33;5.45;;;;;;;;;;4996277;28;20119;-68
2023/03/24 13:09:54;;;;;;;26.23;4.88;;;;;;;;;;4997026;28;20044;-70
2023/03/24 13:12:22;;;;;;;26.67;4.22;;;;;;;;;;4996737;28;20041;-70
2023/03/24 13:14:49;;;;;;;31.98;4.72;;;;;;;;;;4995745;28;20054;-70
2023/03/24 13:17:25;;;;;;;29.67;5.00;;;;;;;;;;4995174;28;20131;-69
2023/03/24 13:19:53;;;;;;;33.45;4.55;;;;;;;;;;4996969;28;20328;-69
2023/03/24 13:22:19;;;;;;;36.75;6.38;;;;;;;;;;4971943;28;20044;-72
2023/03/24 13:24:45;;;;;;;35.85;5.40;;;;;;;;;;4995752;28;21764;-71
2023/03/24 13:27:18;;;;;;;35.72;5.07;;;;;;;;;;4978171;28;20060;-71
2023/03/24 13:29:53;;;;;;;37.75;6.00;;;;;;;;;;4983564;28;20111;-70
2023/03/24 13:32:21;;;;;;;33.80;5.22;;;;;;;;;;4997579;28;20053;-71
2023/03/24 13:34:52;;;;;;;33.10;5.75;;;;;;;;;;4995312;28;20104;-71
2023/03/24 13:37:23;;;;;;;36.88;5.80;;;;;;;;;;4982880;28;20045;-70
2023/03/24 13:39:53;;;;;;;40.17;5.60;;;;;;;;;;4996413;28;20045;-71
2023/03/24 13:42:42;;;;;;;32.45;5.68;;;;;;;;;;4995222;28;20038;-69
2023/03/24 13:45:20;;;;;;;28.85;5.72;;;;;;;;;;4969033;28;20053;-71
2023/03/24 13:47:52;;;;;;;35.45;5.25;;;;;;;;;;4982705;28;20062;-70
2023/03/24 13:50:18;;;;;;;39.78;5.70;;;;;;;;;;4996354;28;20053;-69
2023/03/24 13:52:47;;;;;;;37.63;5.55;;;;;;;;;;4988298;28;20533;-68
2023/03/24 13:55:25;;;;;;;32.47;5.07;;;;;;;;;;4994449;28;20065;-69
2023/03/24 13:57:55;;;;;;;37.38;5.35;;;;;;;;;;4987768;28;20128;-69
2023/03/24 14:00:24;;;;;;;38.20;5.38;;;;;;;;;;4974756;28;20111;-68
2023/03/24 14:03:04;;;;;;;29.25;5.40;;;;;;;;;;5013653;28;20900;-70
2023/03/24 14:05:33;;;;;;;34.95;5.72;;;;;;;;;;4997572;28;20026;-70
2023/03/24 14:08:04;;;;;;;27.83;5.22;;;;;;;;;;4954622;28;20106;-68
2023/03/24 14:10:40;;;;;;;32.47;5.88;;;;;;;;;;4974897;28;22398;-70
2023/03/24 14:13:11;;;;;;;33.78;6.30;;;;;;;;;;4980869;28;20601;-69
2023/03/24 14:15:40;;;;;;;26.92;5.20;;;;;;;;;;4998925;28;22252;-70
2023/03/24 14:18:35;;;;;;;32.70;5.55;;;;;;;;;;4995524;28;20037;-69
2023/03/24 14:21:04;;;;;;;32.97;5.65;;;;;;;;;;4980278;28;20045;-70
2023/03/24 14:23:40;;;;;;;34.17;5.15;;;;;;;;;;4961881;28;20202;-73
2023/03/24 14:26:12;;;;;;;34.88;5.47;;;;;;;;;;4996979;28;20033;-69
2023/03/24 14:28:38;;;;;;;33.35;5.00;;;;;;;;;;4983454;28;20067;-69
2023/03/24 14:31:14;;;;;;;33.58;5.50;;;;;;;;;;4997995;28;20048;-68
2023/03/24 14:34:02;;;;;;;25.70;4.53;;;;;;;;;;4998864;28;20033;-70
2023/03/24 14:36:31;;;;;;;33.58;4.30;;;;;;;;;;4980268;28;20041;-70
2023/03/24 14:39:05;;;;;;;33.97;5.45;;;;;;;;;;4997519;28;20514;-70
2023/03/24 14:41:37;;;;;;;30.10;5.47;;;;;;;;;;4997328;28;20079;-69